TAF LESB
METAR LESB
LESB 080330Z AUTO 21005KT 140V270 9999 BKN035/// OVC039/// 16/10 Q1008=
LESB 080300Z AUTO 24007KT 170V320 9999 SCT036/// BKN040/// 17/09 Q1008=
LESB 080230Z AUTO 25009KT 220V290 9999 FEW037/// 16/10 Q1008=
LESB 080200Z AUTO 24007KT 160V300 9999 SCT036/// 16/09 Q1008=
LESB 080130Z AUTO 25007G17KT 170V290 9999 FEW037/// 16/09 Q1009=
WC LESB
WS LESB
WV LESB